sensor_id;sensor_type;location;lat;lon;timestamp;P1;durP1;ratioP1;P2;durP2;ratioP2
14060;SDS011;7105;43.616;1.434;2022-12-29T00:02:08;30.63;;;17.67;;
14060;SDS011;7105;43.616;1.434;2022-12-29T00:04:34;24.23;;;17.17;;
14060;SDS011;7105;43.616;1.434;2022-12-29T00:07:00;23.30;;;17.33;;
14060;SDS011;7105;43.616;1.434;2022-12-29T00:09:26;25.37;;;16.13;;
14060;SDS011;7105;43.616;1.434;2022-12-29T00:11:52;24.97;;;16.40;;
14060;SDS011;7105;43.616;1.434;2022-12-29T00:14:19;25.70;;;16.97;;
14060;SDS011;7105;43.616;1.434;2022-12-29T00:17:03;23.03;;;15.93;;
14060;SDS011;7105;43.616;1.434;2022-12-29T00:19:29;24.27;;;16.87;;
14060;SDS011;7105;43.616;1.434;2022-12-29T00:22:14;24.17;;;15.60;;
14060;SDS011;7105;43.616;1.434;2022-12-29T00:24:59;23.57;;;16.10;;
14060;SDS011;7105;43.616;1.434;2022-12-29T00:27:43;23.80;;;15.70;;
14060;SDS011;7105;43.616;1.434;2022-12-29T00:30:27;22.83;;;15.97;;
14060;SDS011;7105;43.616;1.434;2022-12-29T00:33:12;22.77;;;14.83;;
14060;SDS011;7105;43.616;1.434;2022-12-29T00:38:30;23.93;;;14.97;;
14060;SDS011;7105;43.616;1.434;2022-12-29T00:41:17;21.10;;;15.17;;
14060;SDS011;7105;43.616;1.434;2022-12-29T00:44:12;22.60;;;15.13;;
14060;SDS011;7105;43.616;1.434;2022-12-29T00:46:39;24.37;;;14.90;;
14060;SDS011;7105;43.616;1.434;2022-12-29T00:49:06;21.47;;;14.40;;
14060;SDS011;7105;43.616;1.434;2022-12-29T00:51:52;22.00;;;15.23;;
14060;SDS011;7105;43.616;1.434;2022-12-29T00:54:19;18.57;;;12.77;;
14060;SDS011;7105;43.616;1.434;2022-12-29T00:56:48;20.27;;;13.93;;
14060;SDS011;7105;43.616;1.434;2022-12-29T00:59:15;22.50;;;14.00;;
14060;SDS011;7105;43.616;1.434;2022-12-29T01:01:41;19.93;;;12.90;;
14060;SDS011;7105;43.616;1.434;2022-12-29T01:04:07;20.37;;;14.40;;
14060;SDS011;7105;43.616;1.434;2022-12-29T01:06:33;20.23;;;13.83;;
14060;SDS011;7105;43.616;1.434;2022-12-29T01:09:01;17.77;;;12.60;;
14060;SDS011;7105;43.616;1.434;2022-12-29T01:11:45;17.93;;;12.87;;
14060;SDS011;7105;43.616;1.434;2022-12-29T01:14:11;18.20;;;11.90;;
14060;SDS011;7105;43.616;1.434;2022-12-29T01:16:36;18.60;;;12.30;;
14060;SDS011;7105;43.616;1.434;2022-12-29T01:19:02;19.40;;;12.80;;
14060;SDS011;7105;43.616;1.434;2022-12-29T01:21:28;19.17;;;12.70;;
14060;SDS011;7105;43.616;1.434;2022-12-29T01:23:55;17.57;;;13.00;;
14060;SDS011;7105;43.616;1.434;2022-12-29T01:26:20;20.60;;;13.30;;
14060;SDS011;7105;43.616;1.434;2022-12-29T01:28:46;18.83;;;13.10;;
14060;SDS011;7105;43.616;1.434;2022-12-29T01:31:12;18.37;;;13.73;;
14060;SDS011;7105;43.616;1.434;2022-12-29T01:33:39;19.43;;;12.80;;
14060;SDS011;7105;43.616;1.434;2022-12-29T01:36:06;18.07;;;13.50;;
14060;SDS011;7105;43.616;1.434;2022-12-29T01:38:34;18.63;;;11.97;;
14060;SDS011;7105;43.616;1.434;2022-12-29T01:41:02;18.97;;;13.57;;
14060;SDS011;7105;43.616;1.434;2022-12-29T01:43:38;15.87;;;12.80;;
14060;SDS011;7105;43.616;1.434;2022-12-29T01:46:04;20.40;;;13.23;;
14060;SDS011;7105;43.616;1.434;2022-12-29T01:48:39;17.77;;;12.90;;
14060;SDS011;7105;43.616;1.434;2022-12-29T01:51:05;19.57;;;13.23;;
14060;SDS011;7105;43.616;1.434;2022-12-29T01:53:32;22.17;;;13.10;;
14060;SDS011;7105;43.616;1.434;2022-12-29T01:56:01;19.47;;;13.10;;
14060;SDS011;7105;43.616;1.434;2022-12-29T01:58:34;20.00;;;12.40;;
14060;SDS011;7105;43.616;1.434;2022-12-29T02:01:04;19.97;;;13.30;;
14060;SDS011;7105;43.616;1.434;2022-12-29T02:03:30;18.80;;;12.30;;
14060;SDS011;7105;43.616;1.434;2022-12-29T02:08:42;19.60;;;12.90;;
14060;SDS011;7105;43.616;1.434;2022-12-29T02:11:11;18.80;;;12.93;;
14060;SDS011;7105;43.616;1.434;2022-12-29T02:13:37;18.67;;;12.63;;
14060;SDS011;7105;43.616;1.434;2022-12-29T02:16:14;17.17;;;12.80;;
14060;SDS011;7105;43.616;1.434;2022-12-29T02:27:40;19.70;;;12.17;;
14060;SDS011;7105;43.616;1.434;2022-12-29T02:36:32;16.87;;;11.70;;
14060;SDS011;7105;43.616;1.434;2022-12-29T02:39:13;18.10;;;11.87;;
14060;SDS011;7105;43.616;1.434;2022-12-29T02:53:12;18.70;;;12.17;;
14060;SDS011;7105;43.616;1.434;2022-12-29T02:55:47;17.17;;;12.70;;
14060;SDS011;7105;43.616;1.434;2022-12-29T02:58:19;17.07;;;11.13;;
14060;SDS011;7105;43.616;1.434;2022-12-29T03:03:43;20.03;;;12.60;;
14060;SDS011;7105;43.616;1.434;2022-12-29T03:11:45;16.83;;;11.47;;
14060;SDS011;7105;43.616;1.434;2022-12-29T03:17:54;15.90;;;11.67;;
14060;SDS011;7105;43.616;1.434;2022-12-29T03:20:41;15.90;;;12.10;;
14060;SDS011;7105;43.616;1.434;2022-12-29T03:23:39;20.10;;;12.37;;
14060;SDS011;7105;43.616;1.434;2022-12-29T03:26:08;17.40;;;11.73;;
14060;SDS011;7105;43.616;1.434;2022-12-29T03:28:38;17.97;;;11.60;;
14060;SDS011;7105;43.616;1.434;2022-12-29T03:31:15;16.97;;;12.03;;
14060;SDS011;7105;43.616;1.434;2022-12-29T03:33:42;18.77;;;10.93;;
14060;SDS011;7105;43.616;1.434;2022-12-29T03:36:10;19.77;;;12.83;;
14060;SDS011;7105;43.616;1.434;2022-12-29T03:38:48;18.87;;;12.70;;
14060;SDS011;7105;43.616;1.434;2022-12-29T03:41:22;17.30;;;12.27;;
14060;SDS011;7105;43.616;1.434;2022-12-29T03:43:51;22.63;;;12.20;;
14060;SDS011;7105;43.616;1.434;2022-12-29T03:46:16;21.63;;;12.60;;
14060;SDS011;7105;43.616;1.434;2022-12-29T03:48:42;16.83;;;12.40;;
14060;SDS011;7105;43.616;1.434;2022-12-29T03:51:08;21.33;;;12.70;;
14060;SDS011;7105;43.616;1.434;2022-12-29T03:53:33;19.50;;;12.40;;
14060;SDS011;7105;43.616;1.434;2022-12-29T03:55:59;22.00;;;13.50;;
14060;SDS011;7105;43.616;1.434;2022-12-29T03:58:25;19.17;;;13.03;;
14060;SDS011;7105;43.616;1.434;2022-12-29T04:00:50;20.47;;;12.70;;
14060;SDS011;7105;43.616;1.434;2022-12-29T04:03:16;20.00;;;13.07;;
14060;SDS011;7105;43.616;1.434;2022-12-29T04:05:42;19.43;;;12.83;;
14060;SDS011;7105;43.616;1.434;2022-12-29T04:08:07;20.50;;;13.47;;
14060;SDS011;7105;43.616;1.434;2022-12-29T04:10:33;26.57;;;13.93;;
14060;SDS011;7105;43.616;1.434;2022-12-29T04:12:59;20.73;;;12.07;;
14060;SDS011;7105;43.616;1.434;2022-12-29T04:15:25;24.03;;;12.50;;
14060;SDS011;7105;43.616;1.434;2022-12-29T04:17:51;21.47;;;12.40;;
14060;SDS011;7105;43.616;1.434;2022-12-29T04:20:17;20.87;;;12.03;;
14060;SDS011;7105;43.616;1.434;2022-12-29T04:23:01;20.13;;;12.83;;
14060;SDS011;7105;43.616;1.434;2022-12-29T04:25:28;20.10;;;12.77;;
14060;SDS011;7105;43.616;1.434;2022-12-29T04:27:55;22.03;;;11.40;;
14060;SDS011;7105;43.616;1.434;2022-12-29T04:30:20;19.30;;;12.00;;
14060;SDS011;7105;43.616;1.434;2022-12-29T04:32:46;19.93;;;12.00;;
14060;SDS011;7105;43.616;1.434;2022-12-29T04:35:12;23.73;;;12.30;;
14060;SDS011;7105;43.616;1.434;2022-12-29T04:37:37;19.87;;;12.53;;
14060;SDS011;7105;43.616;1.434;2022-12-29T04:40:03;21.80;;;12.83;;
14060;SDS011;7105;43.616;1.434;2022-12-29T04:42:29;22.57;;;12.63;;
14060;SDS011;7105;43.616;1.434;2022-12-29T04:44:55;21.37;;;11.97;;
14060;SDS011;7105;43.616;1.434;2022-12-29T04:47:20;16.80;;;11.73;;
14060;SDS011;7105;43.616;1.434;2022-12-29T04:49:46;18.00;;;11.77;;
14060;SDS011;7105;43.616;1.434;2022-12-29T04:52:12;18.90;;;12.10;;
14060;SDS011;7105;43.616;1.434;2022-12-29T04:54:37;22.20;;;12.30;;
14060;SDS011;7105;43.616;1.434;2022-12-29T04:57:03;18.17;;;11.87;;
14060;SDS011;7105;43.616;1.434;2022-12-29T04:59:29;17.43;;;11.37;;
14060;SDS011;7105;43.616;1.434;2022-12-29T05:01:54;18.23;;;11.10;;
14060;SDS011;7105;43.616;1.434;2022-12-29T05:04:20;19.37;;;11.20;;
14060;SDS011;7105;43.616;1.434;2022-12-29T05:06:45;20.00;;;12.50;;
14060;SDS011;7105;43.616;1.434;2022-12-29T05:09:11;16.17;;;11.27;;
14060;SDS011;7105;43.616;1.434;2022-12-29T05:11:37;18.13;;;11.37;;
14060;SDS011;7105;43.616;1.434;2022-12-29T05:14:02;16.87;;;10.87;;
14060;SDS011;7105;43.616;1.434;2022-12-29T05:16:28;20.70;;;11.27;;
14060;SDS011;7105;43.616;1.434;2022-12-29T05:18:54;19.40;;;11.17;;
14060;SDS011;7105;43.616;1.434;2022-12-29T05:21:19;17.30;;;10.97;;
14060;SDS011;7105;43.616;1.434;2022-12-29T05:23:45;19.93;;;10.77;;
14060;SDS011;7105;43.616;1.434;2022-12-29T05:26:11;15.53;;;11.77;;
14060;SDS011;7105;43.616;1.434;2022-12-29T05:28:36;18.13;;;11.40;;
14060;SDS011;7105;43.616;1.434;2022-12-29T05:31:02;19.67;;;12.10;;
14060;SDS011;7105;43.616;1.434;2022-12-29T05:33:27;18.50;;;11.77;;
14060;SDS011;7105;43.616;1.434;2022-12-29T05:35:53;15.97;;;10.20;;
14060;SDS011;7105;43.616;1.434;2022-12-29T05:38:19;18.40;;;11.30;;
14060;SDS011;7105;43.616;1.434;2022-12-29T05:40:44;14.77;;;11.37;;
14060;SDS011;7105;43.616;1.434;2022-12-29T05:43:10;18.97;;;11.77;;
14060;SDS011;7105;43.616;1.434;2022-12-29T05:45:36;15.13;;;10.77;;
14060;SDS011;7105;43.616;1.434;2022-12-29T05:48:02;20.50;;;11.90;;
14060;SDS011;7105;43.616;1.434;2022-12-29T05:50:28;20.00;;;11.77;;
14060;SDS011;7105;43.616;1.434;2022-12-29T05:52:53;16.40;;;11.63;;
14060;SDS011;7105;43.616;1.434;2022-12-29T05:55:19;17.40;;;11.67;;
14060;SDS011;7105;43.616;1.434;2022-12-29T05:57:45;18.07;;;11.93;;
14060;SDS011;7105;43.616;1.434;2022-12-29T06:00:11;21.13;;;12.47;;
14060;SDS011;7105;43.616;1.434;2022-12-29T06:02:37;18.33;;;11.90;;
14060;SDS011;7105;43.616;1.434;2022-12-29T06:05:03;19.97;;;12.03;;
14060;SDS011;7105;43.616;1.434;2022-12-29T06:07:29;19.17;;;12.20;;
14060;SDS011;7105;43.616;1.434;2022-12-29T06:09:54;20.93;;;11.47;;
14060;SDS011;7105;43.616;1.434;2022-12-29T06:12:20;18.20;;;11.60;;
14060;SDS011;7105;43.616;1.434;2022-12-29T06:14:46;20.43;;;14.17;;
14060;SDS011;7105;43.616;1.434;2022-12-29T06:17:11;21.60;;;12.87;;
14060;SDS011;7105;43.616;1.434;2022-12-29T06:19:37;22.10;;;12.60;;
14060;SDS011;7105;43.616;1.434;2022-12-29T06:22:03;21.03;;;12.53;;
14060;SDS011;7105;43.616;1.434;2022-12-29T06:24:28;22.40;;;12.90;;
14060;SDS011;7105;43.616;1.434;2022-12-29T06:26:54;22.27;;;13.20;;
14060;SDS011;7105;43.616;1.434;2022-12-29T06:29:20;22.37;;;13.17;;
14060;SDS011;7105;43.616;1.434;2022-12-29T06:31:45;23.03;;;13.33;;
14060;SDS011;7105;43.616;1.434;2022-12-29T06:34:14;22.67;;;13.23;;
14060;SDS011;7105;43.616;1.434;2022-12-29T06:36:40;22.40;;;13.07;;
14060;SDS011;7105;43.616;1.434;2022-12-29T06:39:06;20.43;;;12.60;;
14060;SDS011;7105;43.616;1.434;2022-12-29T06:41:31;22.37;;;13.10;;
14060;SDS011;7105;43.616;1.434;2022-12-29T06:43:57;20.53;;;13.07;;
14060;SDS011;7105;43.616;1.434;2022-12-29T06:46:23;24.30;;;13.47;;
14060;SDS011;7105;43.616;1.434;2022-12-29T06:48:49;21.47;;;13.77;;
14060;SDS011;7105;43.616;1.434;2022-12-29T06:51:14;24.47;;;14.27;;
14060;SDS011;7105;43.616;1.434;2022-12-29T06:53:40;21.73;;;14.70;;
14060;SDS011;7105;43.616;1.434;2022-12-29T06:56:06;19.20;;;14.10;;
14060;SDS011;7105;43.616;1.434;2022-12-29T06:58:32;26.17;;;15.10;;
14060;SDS011;7105;43.616;1.434;2022-12-29T07:00:57;22.93;;;14.17;;
14060;SDS011;7105;43.616;1.434;2022-12-29T07:03:23;23.67;;;14.70;;
14060;SDS011;7105;43.616;1.434;2022-12-29T07:05:49;22.60;;;14.43;;
14060;SDS011;7105;43.616;1.434;2022-12-29T07:08:14;23.17;;;13.43;;
14060;SDS011;7105;43.616;1.434;2022-12-29T07:10:40;24.07;;;14.60;;
14060;SDS011;7105;43.616;1.434;2022-12-29T07:13:06;24.83;;;14.07;;
14060;SDS011;7105;43.616;1.434;2022-12-29T07:15:35;20.60;;;14.03;;
14060;SDS011;7105;43.616;1.434;2022-12-29T07:18:02;26.30;;;14.53;;
14060;SDS011;7105;43.616;1.434;2022-12-29T07:20:29;22.77;;;14.03;;
14060;SDS011;7105;43.616;1.434;2022-12-29T07:22:54;29.90;;;14.33;;
14060;SDS011;7105;43.616;1.434;2022-12-29T07:25:20;25.00;;;14.43;;
14060;SDS011;7105;43.616;1.434;2022-12-29T07:27:46;24.33;;;14.57;;
14060;SDS011;7105;43.616;1.434;2022-12-29T07:30:12;25.33;;;14.60;;
14060;SDS011;7105;43.616;1.434;2022-12-29T07:32:38;26.10;;;14.13;;
14060;SDS011;7105;43.616;1.434;2022-12-29T07:35:04;25.27;;;14.83;;
14060;SDS011;7105;43.616;1.434;2022-12-29T07:37:29;24.27;;;14.17;;
14060;SDS011;7105;43.616;1.434;2022-12-29T07:39:55;25.77;;;14.37;;
14060;SDS011;7105;43.616;1.434;2022-12-29T07:42:21;27.47;;;14.43;;
14060;SDS011;7105;43.616;1.434;2022-12-29T07:44:48;24.77;;;13.33;;
14060;SDS011;7105;43.616;1.434;2022-12-29T07:47:13;22.10;;;13.27;;
14060;SDS011;7105;43.616;1.434;2022-12-29T07:49:39;27.80;;;13.67;;
14060;SDS011;7105;43.616;1.434;2022-12-29T07:52:05;24.07;;;13.00;;
14060;SDS011;7105;43.616;1.434;2022-12-29T07:54:30;26.53;;;13.13;;
14060;SDS011;7105;43.616;1.434;2022-12-29T07:56:56;19.87;;;12.83;;
14060;SDS011;7105;43.616;1.434;2022-12-29T07:59:22;25.13;;;13.10;;
14060;SDS011;7105;43.616;1.434;2022-12-29T08:01:48;23.23;;;13.00;;
14060;SDS011;7105;43.616;1.434;2022-12-29T08:04:14;27.67;;;13.07;;
14060;SDS011;7105;43.616;1.434;2022-12-29T08:06:39;19.27;;;12.27;;
14060;SDS011;7105;43.616;1.434;2022-12-29T08:09:05;25.20;;;13.37;;
14060;SDS011;7105;43.616;1.434;2022-12-29T08:11:31;21.23;;;12.33;;
14060;SDS011;7105;43.616;1.434;2022-12-29T08:13:56;26.27;;;13.67;;
14060;SDS011;7105;43.616;1.434;2022-12-29T08:16:22;19.40;;;12.90;;
14060;SDS011;7105;43.616;1.434;2022-12-29T08:18:47;22.50;;;12.63;;
14060;SDS011;7105;43.616;1.434;2022-12-29T08:21:13;24.43;;;13.07;;
14060;SDS011;7105;43.616;1.434;2022-12-29T08:23:39;19.50;;;12.47;;
14060;SDS011;7105;43.616;1.434;2022-12-29T08:26:05;20.83;;;12.20;;
14060;SDS011;7105;43.616;1.434;2022-12-29T08:28:31;23.90;;;12.33;;
14060;SDS011;7105;43.616;1.434;2022-12-29T08:30:58;27.33;;;11.87;;
14060;SDS011;7105;43.616;1.434;2022-12-29T08:33:26;21.13;;;11.80;;
14060;SDS011;7105;43.616;1.434;2022-12-29T08:35:52;22.73;;;11.57;;
14060;SDS011;7105;43.616;1.434;2022-12-29T08:38:23;18.33;;;11.40;;
14060;SDS011;7105;43.616;1.434;2022-12-29T08:40:48;21.03;;;11.97;;
14060;SDS011;7105;43.616;1.434;2022-12-29T08:43:16;25.63;;;11.20;;
14060;SDS011;7105;43.616;1.434;2022-12-29T08:45:41;23.10;;;12.07;;
14060;SDS011;7105;43.616;1.434;2022-12-29T08:48:07;20.03;;;10.67;;
14060;SDS011;7105;43.616;1.434;2022-12-29T08:50:32;19.87;;;11.17;;
14060;SDS011;7105;43.616;1.434;2022-12-29T08:52:58;17.90;;;10.50;;
14060;SDS011;7105;43.616;1.434;2022-12-29T08:55:24;17.97;;;10.33;;
14060;SDS011;7105;43.616;1.434;2022-12-29T08:57:49;19.03;;;11.30;;
14060;SDS011;7105;43.616;1.434;2022-12-29T09:00:16;22.30;;;11.77;;
14060;SDS011;7105;43.616;1.434;2022-12-29T09:02:42;20.60;;;10.93;;
14060;SDS011;7105;43.616;1.434;2022-12-29T09:05:08;22.67;;;11.27;;
14060;SDS011;7105;43.616;1.434;2022-12-29T09:07:34;18.97;;;10.73;;
14060;SDS011;7105;43.616;1.434;2022-12-29T09:10:00;20.53;;;10.97;;
14060;SDS011;7105;43.616;1.434;2022-12-29T09:12:26;18.70;;;10.93;;
14060;SDS011;7105;43.616;1.434;2022-12-29T09:14:52;22.17;;;10.80;;
14060;SDS011;7105;43.616;1.434;2022-12-29T09:17:17;21.83;;;10.63;;
14060;SDS011;7105;43.616;1.434;2022-12-29T09:20:02;22.10;;;11.13;;
14060;SDS011;7105;43.616;1.434;2022-12-29T09:22:28;16.33;;;10.00;;
14060;SDS011;7105;43.616;1.434;2022-12-29T09:24:54;17.83;;;10.40;;
14060;SDS011;7105;43.616;1.434;2022-12-29T09:27:19;15.10;;;9.73;;
14060;SDS011;7105;43.616;1.434;2022-12-29T09:29:45;18.23;;;10.53;;
14060;SDS011;7105;43.616;1.434;2022-12-29T09:32:11;21.13;;;10.63;;
14060;SDS011;7105;43.616;1.434;2022-12-29T09:34:38;20.77;;;10.57;;
14060;SDS011;7105;43.616;1.434;2022-12-29T09:37:03;16.00;;;9.97;;
14060;SDS011;7105;43.616;1.434;2022-12-29T09:39:29;18.17;;;9.60;;
14060;SDS011;7105;43.616;1.434;2022-12-29T09:42:05;16.50;;;10.23;;
14060;SDS011;7105;43.616;1.434;2022-12-29T09:47:04;16.87;;;9.30;;
14060;SDS011;7105;43.616;1.434;2022-12-29T09:49:44;16.57;;;9.77;;
14060;SDS011;7105;43.616;1.434;2022-12-29T09:52:20;16.23;;;9.00;;
14060;SDS011;7105;43.616;1.434;2022-12-29T09:57:23;13.67;;;9.57;;
14060;SDS011;7105;43.616;1.434;2022-12-29T09:59:53;19.43;;;9.23;;
14060;SDS011;7105;43.616;1.434;2022-12-29T10:05:02;16.27;;;9.30;;
14060;SDS011;7105;43.616;1.434;2022-12-29T10:10:26;17.60;;;9.33;;
14060;SDS011;7105;43.616;1.434;2022-12-29T10:15:44;18.27;;;9.17;;
14060;SDS011;7105;43.616;1.434;2022-12-29T10:21:17;13.20;;;8.47;;
14060;SDS011;7105;43.616;1.434;2022-12-29T10:23:46;17.13;;;8.50;;
14060;SDS011;7105;43.616;1.434;2022-12-29T10:26:17;14.63;;;8.07;;
14060;SDS011;7105;43.616;1.434;2022-12-29T10:28:47;19.07;;;9.00;;
14060;SDS011;7105;43.616;1.434;2022-12-29T10:31:22;13.67;;;8.37;;
14060;SDS011;7105;43.616;1.434;2022-12-29T10:33:51;15.60;;;8.80;;
14060;SDS011;7105;43.616;1.434;2022-12-29T10:39:14;16.60;;;8.50;;
14060;SDS011;7105;43.616;1.434;2022-12-29T10:42:08;15.83;;;8.40;;
14060;SDS011;7105;43.616;1.434;2022-12-29T10:44:53;15.70;;;7.23;;
14060;SDS011;7105;43.616;1.434;2022-12-29T10:47:23;19.90;;;8.13;;
14060;SDS011;7105;43.616;1.434;2022-12-29T10:49:51;14.47;;;7.67;;
14060;SDS011;7105;43.616;1.434;2022-12-29T10:52:18;13.83;;;7.90;;
14060;SDS011;7105;43.616;1.434;2022-12-29T10:54:48;14.07;;;7.77;;
14060;SDS011;7105;43.616;1.434;2022-12-29T10:57:24;15.50;;;7.70;;
14060;SDS011;7105;43.616;1.434;2022-12-29T10:59:57;12.37;;;8.20;;
14060;SDS011;7105;43.616;1.434;2022-12-29T11:02:41;11.37;;;7.10;;
14060;SDS011;7105;43.616;1.434;2022-12-29T11:05:37;16.53;;;7.60;;
14060;SDS011;7105;43.616;1.434;2022-12-29T11:08:17;14.13;;;7.27;;
14060;SDS011;7105;43.616;1.434;2022-12-29T11:10:46;13.57;;;6.87;;
14060;SDS011;7105;43.616;1.434;2022-12-29T11:13:26;12.37;;;7.00;;
14060;SDS011;7105;43.616;1.434;2022-12-29T11:15:54;10.57;;;7.47;;
14060;SDS011;7105;43.616;1.434;2022-12-29T11:18:23;11.87;;;7.73;;
14060;SDS011;7105;43.616;1.434;2022-12-29T11:20:52;13.07;;;7.70;;
14060;SDS011;7105;43.616;1.434;2022-12-29T11:23:26;14.03;;;7.60;;
14060;SDS011;7105;43.616;1.434;2022-12-29T11:28:39;9.10;;;6.27;;
14060;SDS011;7105;43.616;1.434;2022-12-29T11:31:07;11.77;;;7.07;;
14060;SDS011;7105;43.616;1.434;2022-12-29T11:33:34;13.80;;;7.37;;
14060;SDS011;7105;43.616;1.434;2022-12-29T11:38:38;15.37;;;8.00;;
14060;SDS011;7105;43.616;1.434;2022-12-29T11:41:06;13.30;;;6.73;;
14060;SDS011;7105;43.616;1.434;2022-12-29T11:43:37;13.10;;;7.10;;
14060;SDS011;7105;43.616;1.434;2022-12-29T11:46:06;15.27;;;7.40;;
14060;SDS011;7105;43.616;1.434;2022-12-29T11:48:39;13.20;;;7.20;;
14060;SDS011;7105;43.616;1.434;2022-12-29T11:51:06;9.87;;;6.23;;
14060;SDS011;7105;43.616;1.434;2022-12-29T11:56:08;11.57;;;6.53;;
14060;SDS011;7105;43.616;1.434;2022-12-29T11:58:38;10.03;;;6.27;;
14060;SDS011;7105;43.616;1.434;2022-12-29T12:01:14;9.57;;;6.20;;
14060;SDS011;7105;43.616;1.434;2022-12-29T12:04:10;12.90;;;6.53;;
14060;SDS011;7105;43.616;1.434;2022-12-29T12:06:43;10.57;;;6.27;;
14060;SDS011;7105;43.616;1.434;2022-12-29T12:12:00;15.57;;;7.37;;
14060;SDS011;7105;43.616;1.434;2022-12-29T12:14:32;13.07;;;6.90;;
14060;SDS011;7105;43.616;1.434;2022-12-29T12:17:06;11.77;;;6.50;;
14060;SDS011;7105;43.616;1.434;2022-12-29T12:22:51;14.80;;;6.70;;
14060;SDS011;7105;43.616;1.434;2022-12-29T12:25:37;14.57;;;6.43;;
14060;SDS011;7105;43.616;1.434;2022-12-29T12:31:01;16.33;;;6.73;;
14060;SDS011;7105;43.616;1.434;2022-12-29T12:33:35;13.63;;;6.43;;
14060;SDS011;7105;43.616;1.434;2022-12-29T12:50:08;11.03;;;6.40;;
14060;SDS011;7105;43.616;1.434;2022-12-29T12:53:07;15.30;;;6.50;;
14060;SDS011;7105;43.616;1.434;2022-12-29T12:58:41;14.30;;;7.07;;
14060;SDS011;7105;43.616;1.434;2022-12-29T13:17:35;12.37;;;6.53;;
14060;SDS011;7105;43.616;1.434;2022-12-29T13:20:24;14.03;;;7.20;;
14060;SDS011;7105;43.616;1.434;2022-12-29T13:23:31;11.37;;;5.97;;
14060;SDS011;7105;43.616;1.434;2022-12-29T13:26:27;13.37;;;6.40;;
14060;SDS011;7105;43.616;1.434;2022-12-29T13:29:20;10.37;;;6.00;;
14060;SDS011;7105;43.616;1.434;2022-12-29T13:31:55;11.53;;;6.20;;
14060;SDS011;7105;43.616;1.434;2022-12-29T13:37:26;10.73;;;6.43;;
14060;SDS011;7105;43.616;1.434;2022-12-29T13:39:55;15.13;;;6.97;;
14060;SDS011;7105;43.616;1.434;2022-12-29T13:42:24;12.07;;;6.03;;
14060;SDS011;7105;43.616;1.434;2022-12-29T13:44:54;12.30;;;6.80;;
14060;SDS011;7105;43.616;1.434;2022-12-29T13:47:36;14.43;;;6.57;;
14060;SDS011;7105;43.616;1.434;2022-12-29T13:50:20;14.00;;;6.60;;
14060;SDS011;7105;43.616;1.434;2022-12-29T13:53:04;11.67;;;6.00;;
14060;SDS011;7105;43.616;1.434;2022-12-29T13:55:55;14.07;;;7.00;;
14060;SDS011;7105;43.616;1.434;2022-12-29T13:58:41;12.43;;;7.30;;
14060;SDS011;7105;43.616;1.434;2022-12-29T14:01:18;14.63;;;7.03;;
14060;SDS011;7105;43.616;1.434;2022-12-29T14:03:58;11.90;;;7.10;;
14060;SDS011;7105;43.616;1.434;2022-12-29T14:06:26;11.10;;;6.97;;
14060;SDS011;7105;43.616;1.434;2022-12-29T14:09:05;10.83;;;6.90;;
14060;SDS011;7105;43.616;1.434;2022-12-29T14:11:51;16.53;;;6.73;;
14060;SDS011;7105;43.616;1.434;2022-12-29T14:14:28;13.50;;;6.93;;
14060;SDS011;7105;43.616;1.434;2022-12-29T14:16:57;15.93;;;6.03;;
14060;SDS011;7105;43.616;1.434;2022-12-29T14:19:37;10.53;;;6.83;;
14060;SDS011;7105;43.616;1.434;2022-12-29T14:22:06;14.53;;;7.20;;
14060;SDS011;7105;43.616;1.434;2022-12-29T14:27:00;14.07;;;7.00;;
14060;SDS011;7105;43.616;1.434;2022-12-29T14:29:47;16.00;;;6.30;;
14060;SDS011;7105;43.616;1.434;2022-12-29T14:34:58;11.63;;;6.63;;
14060;SDS011;7105;43.616;1.434;2022-12-29T14:42:45;11.30;;;6.60;;
14060;SDS011;7105;43.616;1.434;2022-12-29T14:47:41;14.43;;;6.73;;
14060;SDS011;7105;43.616;1.434;2022-12-29T14:50:25;13.53;;;6.43;;
14060;SDS011;7105;43.616;1.434;2022-12-29T14:53:01;12.57;;;6.30;;
14060;SDS011;7105;43.616;1.434;2022-12-29T14:58:27;18.70;;;7.53;;
14060;SDS011;7105;43.616;1.434;2022-12-29T15:00:56;17.27;;;7.60;;
14060;SDS011;7105;43.616;1.434;2022-12-29T15:03:24;14.67;;;7.20;;
14060;SDS011;7105;43.616;1.434;2022-12-29T15:05:55;11.93;;;7.23;;
14060;SDS011;7105;43.616;1.434;2022-12-29T15:08:24;14.90;;;8.43;;
14060;SDS011;7105;43.616;1.434;2022-12-29T15:11:00;14.03;;;7.57;;
14060;SDS011;7105;43.616;1.434;2022-12-29T15:13:47;16.43;;;7.50;;
14060;SDS011;7105;43.616;1.434;2022-12-29T15:19:01;14.33;;;7.87;;
14060;SDS011;7105;43.616;1.434;2022-12-29T15:21:32;14.00;;;7.93;;
14060;SDS011;7105;43.616;1.434;2022-12-29T15:24:02;14.63;;;8.30;;
14060;SDS011;7105;43.616;1.434;2022-12-29T15:26:41;11.90;;;8.33;;
14060;SDS011;7105;43.616;1.434;2022-12-29T15:32:02;14.27;;;8.57;;
14060;SDS011;7105;43.616;1.434;2022-12-29T15:34:45;16.57;;;8.40;;
14060;SDS011;7105;43.616;1.434;2022-12-29T15:37:23;15.43;;;8.90;;
14060;SDS011;7105;43.616;1.434;2022-12-29T15:39:54;14.33;;;8.03;;
14060;SDS011;7105;43.616;1.434;2022-12-29T15:44:46;13.50;;;9.00;;
14060;SDS011;7105;43.616;1.434;2022-12-29T15:49:42;14.13;;;8.43;;
14060;SDS011;7105;43.616;1.434;2022-12-29T15:52:09;16.00;;;9.77;;
14060;SDS011;7105;43.616;1.434;2022-12-29T15:54:36;17.30;;;8.63;;
14060;SDS011;7105;43.616;1.434;2022-12-29T15:57:03;14.47;;;8.90;;
14060;SDS011;7105;43.616;1.434;2022-12-29T15:59:30;14.90;;;8.90;;
14060;SDS011;7105;43.616;1.434;2022-12-29T16:01:58;17.40;;;8.90;;
14060;SDS011;7105;43.616;1.434;2022-12-29T16:04:26;16.67;;;9.20;;
14060;SDS011;7105;43.616;1.434;2022-12-29T16:06:57;15.47;;;9.23;;
14060;SDS011;7105;43.616;1.434;2022-12-29T16:09:40;18.33;;;10.20;;
14060;SDS011;7105;43.616;1.434;2022-12-29T16:12:16;17.67;;;10.43;;
14060;SDS011;7105;43.616;1.434;2022-12-29T16:14:46;17.53;;;11.33;;
14060;SDS011;7105;43.616;1.434;2022-12-29T16:17:15;19.60;;;10.43;;
14060;SDS011;7105;43.616;1.434;2022-12-29T16:19:48;18.43;;;11.20;;
14060;SDS011;7105;43.616;1.434;2022-12-29T16:22:30;16.90;;;10.87;;
14060;SDS011;7105;43.616;1.434;2022-12-29T16:25:13;15.20;;;10.87;;
14060;SDS011;7105;43.616;1.434;2022-12-29T16:27:45;19.23;;;11.00;;
14060;SDS011;7105;43.616;1.434;2022-12-29T16:30:21;18.37;;;10.83;;
14060;SDS011;7105;43.616;1.434;2022-12-29T16:32:49;18.17;;;11.43;;
14060;SDS011;7105;43.616;1.434;2022-12-29T16:35:21;20.83;;;11.50;;
14060;SDS011;7105;43.616;1.434;2022-12-29T16:37:49;18.90;;;11.70;;
14060;SDS011;7105;43.616;1.434;2022-12-29T16:40:32;23.80;;;13.07;;
14060;SDS011;7105;43.616;1.434;2022-12-29T16:42:58;19.73;;;12.10;;
14060;SDS011;7105;43.616;1.434;2022-12-29T16:48:10;23.53;;;13.20;;
14060;SDS011;7105;43.616;1.434;2022-12-29T16:51:12;20.83;;;14.37;;
14060;SDS011;7105;43.616;1.434;2022-12-29T16:53:42;29.00;;;17.27;;
14060;SDS011;7105;43.616;1.434;2022-12-29T16:56:20;28.40;;;16.77;;
14060;SDS011;7105;43.616;1.434;2022-12-29T16:58:55;22.57;;;15.00;;
14060;SDS011;7105;43.616;1.434;2022-12-29T17:01:25;22.43;;;14.40;;
14060;SDS011;7105;43.616;1.434;2022-12-29T17:03:53;22.33;;;13.90;;
14060;SDS011;7105;43.616;1.434;2022-12-29T17:06:23;27.77;;;16.17;;
14060;SDS011;7105;43.616;1.434;2022-12-29T17:08:49;23.07;;;14.47;;
14060;SDS011;7105;43.616;1.434;2022-12-29T17:11:28;21.20;;;14.87;;
14060;SDS011;7105;43.616;1.434;2022-12-29T17:14:18;22.63;;;16.47;;
14060;SDS011;7105;43.616;1.434;2022-12-29T17:16:52;30.73;;;17.30;;
14060;SDS011;7105;43.616;1.434;2022-12-29T17:19:19;21.03;;;12.13;;
14060;SDS011;7105;43.616;1.434;2022-12-29T17:21:49;10.57;;;5.07;;
14060;SDS011;7105;43.616;1.434;2022-12-29T17:24:16;6.63;;;4.37;;